Time;durP1;ratioP1;P1;durP2;ratioP2;P2;SDS_P1;SDS_P2;PMS_P1;PMS_P2;Temp;Humidity;BMP_temperature;BMP_pressure;BME280_temperature;BME280_humidity;BME280_pressure;Samples;Min_cycle;Max_cycle;Signal;HPM_P1;HPM_P2
2022/06/16 00:00:16;;;;;;;7.10;2.58;;;17.70;99.90;;;;;;5073740;27;37448;-78
2022/06/16 00:02:45;;;;;;;3.72;2.40;;;17.70;99.90;;;;;;5066311;27;38815;-78
2022/06/16 00:05:13;;;;;;;5.30;2.85;;;17.60;99.90;;;;;;5074933;27;41594;-78
2022/06/16 00:07:41;;;;;;;3.83;2.83;;;17.60;99.90;;;;;;5073873;27;38004;-78
2022/06/16 00:10:09;;;;;;;9.43;3.17;;;17.70;99.90;;;;;;5076398;27;36490;-78
2022/06/16 00:12:36;;;;;;;6.47;2.70;;;17.60;99.90;;;;;;5072397;27;39367;-78
2022/06/16 00:15:04;;;;;;;4.22;3.10;;;17.60;99.90;;;;;;5073280;28;38272;-78
2022/06/16 00:17:30;;;;;;;5.20;2.60;;;17.50;99.90;;;;;;5071461;27;47304;-79
2022/06/16 00:19:56;;;;;;;5.03;2.60;;;17.60;99.90;;;;;;5094410;27;37763;-78
2022/06/16 00:22:23;;;;;;;4.10;2.80;;;17.50;99.90;;;;;;5077391;27;39162;-78
2022/06/16 00:24:49;;;;;;;4.68;2.60;;;17.50;99.90;;;;;;5078123;27;39026;-78
2022/06/16 00:27:15;;;;;;;5.78;2.65;;;17.40;99.90;;;;;;5076700;27;36462;-78
2022/06/16 00:29:41;;;;;;;3.80;2.78;;;17.30;99.90;;;;;;5066921;27;37903;-77
2022/06/16 00:32:07;;;;;;;5.15;2.67;;;17.30;99.90;;;;;;5059570;28;39274;-78
2022/06/16 00:34:33;;;;;;;6.80;2.83;;;17.30;99.90;;;;;;5062172;28;37591;-78
2022/06/16 00:36:59;;;;;;;6.57;3.05;;;17.30;99.90;;;;;;5055253;28;38232;-79
2022/06/16 00:39:26;;;;;;;4.30;2.85;;;17.20;99.90;;;;;;5084779;27;36333;-78
2022/06/16 00:41:52;;;;;;;5.50;2.72;;;17.20;99.90;;;;;;5057056;28;38100;-78
2022/06/16 00:44:20;;;;;;;4.15;2.85;;;17.20;99.90;;;;;;5060483;28;38417;-78
2022/06/16 00:46:47;;;;;;;4.65;2.42;;;17.10;99.90;;;;;;5057487;28;39213;-79
2022/06/16 00:49:14;;;;;;;3.72;2.40;;;17.10;99.90;;;;;;5052434;28;39484;-78
2022/06/16 00:51:49;;;;;;;4.65;2.65;;;17.00;99.90;;;;;;5059208;28;38009;-78
2022/06/16 00:54:24;;;;;;;6.15;3.00;;;16.80;99.90;;;;;;5049623;27;37235;-78
2022/06/16 00:56:53;;;;;;;4.93;3.25;;;16.70;99.90;;;;;;5078520;28;36928;-78
2022/06/16 00:59:21;;;;;;;5.20;2.80;;;16.70;99.90;;;;;;5085532;27;36232;-78
2022/06/16 01:01:47;;;;;;;4.35;2.75;;;16.70;99.90;;;;;;5059880;28;38486;-78
2022/06/16 01:07:02;;;;;;;3.80;3.15;;;16.60;99.90;;;;;;5060441;28;38645;-78
2022/06/16 01:09:31;;;;;;;6.53;3.00;;;16.60;99.90;;;;;;5058324;28;47792;-78
2022/06/16 01:16:08;;;;;;;5.05;3.20;;;16.60;99.90;;;;;;5077101;27;49374;-78
2022/06/16 01:18:51;;;;;;;5.05;3.05;;;16.60;99.90;;;;;;5021817;28;48310;-78
2022/06/16 01:21:52;;;;;;;5.63;2.90;;;16.50;99.90;;;;;;5013594;28;38547;-79
2022/06/16 01:24:41;;;;;;;3.17;2.85;;;16.50;99.90;;;;;;5072136;27;39778;-78
2022/06/16 01:27:19;;;;;;;6.13;2.72;;;16.40;99.90;;;;;;5065802;27;39102;-78
2022/06/16 01:30:10;;;;;;;4.60;3.10;;;16.40;99.90;;;;;;5068937;27;38153;-78
2022/06/16 01:32:56;;;;;;;6.68;2.90;;;16.30;99.90;;;;;;5096626;27;46886;-78
2022/06/16 01:35:34;;;;;;;5.80;3.28;;;16.30;99.90;;;;;;5056062;28;40537;-79
2022/06/16 01:38:24;;;;;;;8.48;3.63;;;16.30;99.90;;;;;;5053698;27;39941;-78
2022/06/16 01:41:10;;;;;;;5.75;2.65;;;16.20;99.90;;;;;;5077942;28;47375;-79
2022/06/16 01:44:03;;;;;;;4.53;3.03;;;16.10;99.90;;;;;;5094446;27;46893;-79
2022/06/16 01:46:32;;;;;;;5.85;3.60;;;16.10;99.90;;;;;;5102913;27;47037;-78
2022/06/16 01:49:12;;;;;;;5.43;3.42;;;16.00;99.90;;;;;;5055706;28;40181;-79
2022/06/16 01:52:02;;;;;;;5.25;3.20;;;16.00;99.90;;;;;;5088213;27;47398;-78
2022/06/16 01:54:36;;;;;;;6.30;3.03;;;16.00;99.90;;;;;;5074646;28;46978;-78
2022/06/16 01:57:26;;;;;;;3.30;2.75;;;16.00;99.90;;;;;;5107575;27;39739;-79
2022/06/16 02:00:15;;;;;;;5.60;3.13;;;16.00;99.90;;;;;;5074942;27;39176;-79
2022/06/16 02:02:42;;;;;;;5.18;3.00;;;16.00;99.90;;;;;;5072304;27;47511;-78
2022/06/16 02:05:27;;;;;;;4.00;2.83;;;16.00;99.90;;;;;;5074085;27;37886;-79
2022/06/16 02:08:16;;;;;;;6.50;3.45;;;16.00;99.90;;;;;;5062663;28;40485;-78
2022/06/16 02:10:48;;;;;;;6.90;3.33;;;15.90;99.90;;;;;;5074772;28;47156;-78
2022/06/16 02:13:21;;;;;;;4.55;3.25;;;15.80;99.90;;;;;;5109019;27;36911;-78
2022/06/16 02:16:03;;;;;;;5.65;3.60;;;15.80;99.90;;;;;;5081936;27;38170;-78
2022/06/16 02:18:33;;;;;;;5.93;3.33;;;15.80;99.90;;;;;;5063993;28;47080;-78
2022/06/16 02:21:23;;;;;;;4.80;3.35;;;15.80;99.90;;;;;;5064346;28;37980;-78
2022/06/16 02:23:51;;;;;;;5.18;3.22;;;15.80;99.90;;;;;;5066487;28;48550;-78
2022/06/16 02:26:17;;;;;;;4.22;3.20;;;15.80;99.90;;;;;;5062511;27;36028;-78
2022/06/16 02:28:55;;;;;;;5.05;3.05;;;15.80;99.90;;;;;;5081314;28;38847;-78
2022/06/16 02:31:30;;;;;;;5.68;3.00;;;15.80;99.90;;;;;;5066052;28;40105;-79
2022/06/16 02:34:14;;;;;;;7.07;3.30;;;15.80;99.90;;;;;;5073889;28;36776;-79
2022/06/16 02:37:15;;;;;;;5.38;3.22;;;15.80;99.90;;;;;;5069630;28;47308;-78
2022/06/16 02:39:59;;;;;;;4.75;3.40;;;15.70;99.90;;;;;;5068190;28;47126;-78
2022/06/16 02:42:49;;;;;;;6.38;3.30;;;15.60;99.90;;;;;;5071216;28;39362;-78
2022/06/16 02:45:23;;;;;;;6.35;3.00;;;15.60;99.90;;;;;;5075313;27;40018;-79
2022/06/16 02:48:14;;;;;;;4.18;3.25;;;15.60;99.90;;;;;;5069193;27;39646;-78
2022/06/16 02:50:46;;;;;;;5.65;3.45;;;15.50;99.90;;;;;;5087637;27;47145;-77
2022/06/16 02:53:45;;;;;;;4.55;3.08;;;15.40;99.90;;;;;;5052908;28;40007;-77
2022/06/16 02:56:24;;;;;;;4.65;3.42;;;15.40;99.90;;;;;;5070094;28;38807;-79
2022/06/16 02:58:53;;;;;;;5.25;3.63;;;15.30;99.90;;;;;;5095852;27;39230;-78
2022/06/16 03:01:20;;;;;;;5.63;3.45;;;15.30;99.90;;;;;;5057387;28;38897;-78
2022/06/16 03:04:08;;;;;;;6.25;3.47;;;15.30;99.90;;;;;;5058016;28;38997;-79
2022/06/16 03:06:35;;;;;;;7.00;3.33;;;15.20;99.90;;;;;;5079412;27;48577;-76
2022/06/16 03:09:02;;;;;;;5.63;3.65;;;15.20;99.90;;;;;;5094025;27;38125;-78
2022/06/16 03:11:28;;;;;;;4.22;3.10;;;15.20;99.90;;;;;;5071122;27;39571;-76
2022/06/16 03:13:54;;;;;;;5.40;3.45;;;15.20;99.90;;;;;;5050332;28;38427;-77
2022/06/16 03:16:21;;;;;;;5.20;3.38;;;15.20;99.90;;;;;;5052234;27;38546;-77
2022/06/16 03:18:48;;;;;;;5.53;3.30;;;15.20;99.90;;;;;;5056342;27;37977;-77
2022/06/16 03:21:14;;;;;;;5.70;3.45;;;15.20;99.90;;;;;;5053437;28;39884;-77
2022/06/16 03:23:40;;;;;;;4.90;3.70;;;15.10;99.90;;;;;;5054653;28;38463;-77
2022/06/16 03:26:06;;;;;;;4.88;3.45;;;15.10;99.90;;;;;;5056338;28;38827;-77
2022/06/16 03:28:32;;;;;;;8.25;4.00;;;15.10;99.90;;;;;;5057351;28;35497;-77
2022/06/16 03:30:59;;;;;;;5.97;3.60;;;15.10;99.90;;;;;;5043378;28;39578;-77
2022/06/16 03:33:25;;;;;;;6.10;3.45;;;15.00;99.90;;;;;;5048272;28;40335;-76
2022/06/16 03:35:51;;;;;;;5.15;3.28;;;15.00;99.90;;;;;;5051887;28;39155;-77
2022/06/16 03:38:39;;;;;;;7.20;4.00;;;15.00;99.90;;;;;;5052884;28;36275;-76
2022/06/16 03:41:05;;;;;;;6.20;3.75;;;15.00;99.90;;;;;;5052837;27;38641;-75
2022/06/16 03:43:31;;;;;;;6.35;3.30;;;14.90;99.90;;;;;;5069569;28;40015;-78
2022/06/16 03:45:57;;;;;;;6.15;3.28;;;14.90;99.90;;;;;;5077993;27;38103;-79
2022/06/16 03:48:23;;;;;;;4.47;2.90;;;14.90;99.90;;;;;;5077612;27;37612;-78
2022/06/16 03:50:49;;;;;;;5.78;3.40;;;14.90;99.90;;;;;;5074774;27;38388;-78
2022/06/16 03:53:16;;;;;;;6.13;3.63;;;14.90;99.90;;;;;;5063304;27;39315;-78
2022/06/16 03:55:42;;;;;;;3.60;2.90;;;14.80;99.90;;;;;;5079077;27;39461;-78
2022/06/16 03:58:09;;;;;;;5.10;3.00;;;14.80;99.90;;;;;;5079861;27;38666;-79
2022/06/16 04:00:36;;;;;;;6.47;4.60;;;14.80;99.90;;;;;;5080395;27;39360;-78
2022/06/16 04:05:47;;;;;;;6.60;3.28;;;14.80;99.90;;;;;;5084451;27;48177;-78
2022/06/16 04:08:16;;;;;;;6.20;2.92;;;14.70;99.90;;;;;;5064445;27;37637;-78
2022/06/16 04:10:43;;;;;;;8.40;3.40;;;14.70;99.90;;;;;;5071712;27;39783;-78
2022/06/16 04:13:13;;;;;;;6.40;2.80;;;14.70;99.90;;;;;;5059008;28;39869;-78
2022/06/16 04:15:39;;;;;;;4.65;2.90;;;14.70;99.90;;;;;;5060907;28;38408;-78
2022/06/16 04:18:05;;;;;;;6.82;3.17;;;14.60;99.90;;;;;;5081470;27;39442;-77
2022/06/16 04:20:32;;;;;;;6.32;2.90;;;14.60;99.90;;;;;;5095130;27;39569;-78
2022/06/16 04:22:59;;;;;;;3.75;2.53;;;14.60;99.90;;;;;;5083488;27;38529;-77
2022/06/16 04:25:30;;;;;;;5.93;3.05;;;14.60;99.90;;;;;;5078102;27;39306;-78
2022/06/16 04:28:01;;;;;;;7.70;2.97;;;14.60;99.90;;;;;;5095732;27;39092;-78
2022/06/16 04:30:28;;;;;;;5.55;2.35;;;14.60;99.90;;;;;;5057850;28;39921;-77
2022/06/16 04:32:57;;;;;;;5.15;2.30;;;14.70;99.90;;;;;;5055704;28;37478;-78
2022/06/16 04:35:23;;;;;;;4.05;2.47;;;14.80;99.90;;;;;;5077170;27;38672;-78
2022/06/16 04:37:50;;;;;;;5.03;2.60;;;14.80;99.90;;;;;;5084059;28;38995;-77
2022/06/16 04:40:16;;;;;;;6.43;2.50;;;14.80;99.90;;;;;;5069979;27;39143;-77
2022/06/16 04:42:42;;;;;;;4.68;2.35;;;14.80;99.90;;;;;;5076138;27;39202;-78
2022/06/16 04:45:10;;;;;;;4.38;2.42;;;14.80;99.90;;;;;;5060755;27;38251;-78
2022/06/16 04:47:38;;;;;;;4.88;2.40;;;14.90;99.90;;;;;;5073513;27;37327;-78
2022/06/16 04:50:06;;;;;;;4.75;2.50;;;15.00;99.90;;;;;;5069642;27;40384;-78
2022/06/16 04:52:32;;;;;;;5.35;2.55;;;15.10;99.90;;;;;;5073320;27;38381;-77
2022/06/16 04:54:58;;;;;;;8.77;2.15;;;15.20;99.90;;;;;;5072397;27;38453;-77
2022/06/16 04:57:25;;;;;;;2.85;2.05;;;15.30;99.90;;;;;;5060485;27;37762;-78
2022/06/16 04:59:51;;;;;;;3.97;1.60;;;15.50;99.90;;;;;;5080769;28;39251;-78
2022/06/16 05:02:17;;;;;;;3.25;2.10;;;15.80;99.90;;;;;;5074083;27;38211;-79
2022/06/16 05:04:44;;;;;;;4.60;2.20;;;16.20;99.90;;;;;;5079688;27;37102;-78
2022/06/16 05:07:11;;;;;;;3.45;2.10;;;16.60;99.90;;;;;;5072174;27;37649;-78
2022/06/16 05:09:37;;;;;;;3.15;2.00;;;16.90;99.90;;;;;;5068873;28;42462;-78
2022/06/16 05:12:04;;;;;;;3.50;2.03;;;16.80;99.90;;;;;;5053601;28;38874;-79
2022/06/16 05:14:30;;;;;;;3.40;1.90;;;16.70;99.90;;;;;;5059662;28;38944;-77
2022/06/16 05:16:57;;;;;;;4.38;2.08;;;16.60;99.90;;;;;;5058531;28;37847;-78
2022/06/16 05:19:23;;;;;;;5.53;2.10;;;16.60;99.90;;;;;;5061158;28;40168;-78
2022/06/16 05:21:49;;;;;;;4.90;1.92;;;16.60;99.90;;;;;;5060046;28;40400;-78
2022/06/16 05:24:15;;;;;;;5.75;1.83;;;16.50;99.90;;;;;;5058560;28;37599;-78
2022/06/16 05:26:41;;;;;;;3.33;1.48;;;16.50;99.90;;;;;;5059349;28;37199;-78
2022/06/16 05:29:08;;;;;;;3.22;1.73;;;16.50;99.90;;;;;;5060603;28;37849;-78
2022/06/16 05:31:36;;;;;;;3.55;1.90;;;16.60;99.90;;;;;;5062413;28;38325;-78
2022/06/16 05:34:02;;;;;;;5.47;1.80;;;16.50;99.90;;;;;;5080104;27;38223;-78
2022/06/16 05:36:29;;;;;;;2.60;2.00;;;16.40;99.90;;;;;;5065704;27;38206;-78
2022/06/16 05:38:55;;;;;;;3.33;1.73;;;16.50;99.90;;;;;;5064764;28;38088;-78
2022/06/16 05:41:21;;;;;;;4.50;1.67;;;16.70;99.90;;;;;;5056809;28;36913;-78
2022/06/16 05:43:47;;;;;;;3.83;1.88;;;16.80;99.90;;;;;;5057124;28;38727;-79
2022/06/16 05:46:19;;;;;;;7.30;1.52;;;17.10;99.90;;;;;;5076005;27;36107;-78
2022/06/16 05:48:45;;;;;;;4.57;1.58;;;17.50;99.90;;;;;;5091186;27;38024;-78
2022/06/16 05:51:14;;;;;;;5.93;1.80;;;17.80;99.90;;;;;;5060319;27;39801;-78
2022/06/16 05:53:41;;;;;;;2.90;1.60;;;18.10;99.90;;;;;;5052289;27;38141;-78
2022/06/16 05:56:08;;;;;;;3.63;1.40;;;18.40;99.90;;;;;;5059467;28;39277;-78
2022/06/16 05:58:35;;;;;;;5.10;1.52;;;18.70;99.90;;;;;;5056333;27;37670;-76
2022/06/16 06:01:03;;;;;;;5.45;1.90;;;18.80;99.90;;;;;;5072219;27;37099;-77
2022/06/16 06:03:29;;;;;;;4.10;1.30;;;18.90;99.90;;;;;;5061223;27;38935;-77
2022/06/16 06:05:55;;;;;;;3.80;1.70;;;19.00;99.90;;;;;;5083496;27;38570;-77
2022/06/16 06:16:41;;;;;;;7.30;2.95;;;19.30;99.90;;;;;;5068543;27;49248;-77
2022/06/16 06:19:23;;;;;;;4.57;1.98;;;19.60;99.90;;;;;;5074627;27;38985;-77
2022/06/16 06:22:02;;;;;;;13.50;3.40;;;19.90;99.90;;;;;;5052787;28;38580;-77
2022/06/16 06:24:36;;;;;;;6.82;2.63;;;20.10;99.90;;;;;;5077413;27;47494;-77
2022/06/16 06:27:24;;;;;;;3.47;1.30;;;20.30;99.90;;;;;;5077758;27;36954;-77
2022/06/16 06:29:50;;;;;;;5.47;1.45;;;20.20;99.90;;;;;;5063146;28;39819;-77
2022/06/16 06:32:22;;;;;;;8.38;2.55;;;20.40;99.90;;;;;;5060761;27;38550;-77
2022/06/16 06:34:48;;;;;;;3.13;1.08;;;20.20;99.90;;;;;;5062384;28;38000;-77
2022/06/16 06:37:17;;;;;;;4.55;1.33;;;20.20;99.90;;;;;;5076019;27;37015;-77
2022/06/16 06:39:43;;;;;;;2.05;1.33;;;20.30;99.90;;;;;;5060705;27;39672;-77
2022/06/16 06:42:10;;;;;;;6.18;1.83;;;20.40;99.90;;;;;;5056467;28;39617;-77
2022/06/16 06:44:36;;;;;;;2.75;1.42;;;20.70;99.90;;;;;;5056110;27;38747;-77
2022/06/16 06:47:03;;;;;;;2.03;1.13;;;21.00;99.90;;;;;;5054857;28;37240;-77
2022/06/16 06:49:30;;;;;;;3.38;1.30;;;21.10;99.90;;;;;;5059808;28;38748;-77
2022/06/16 06:51:56;;;;;;;2.72;1.35;;;21.30;99.90;;;;;;5056076;28;39041;-77
2022/06/16 06:54:22;;;;;;;5.78;1.30;;;21.30;99.90;;;;;;5056642;28;38114;-78
2022/06/16 06:56:50;;;;;;;7.65;2.78;;;21.50;99.90;;;;;;5056326;28;39211;-78
2022/06/16 06:59:21;;;;;;;6.15;2.13;;;21.60;99.90;;;;;;5058443;27;39145;-77
2022/06/16 07:01:49;;;;;;;8.03;2.63;;;21.50;99.90;;;;;;5089680;27;38493;-78
2022/06/16 07:04:17;;;;;;;3.65;1.30;;;21.50;99.90;;;;;;5064772;28;37886;-78
2022/06/16 07:06:46;;;;;;;3.10;1.27;;;21.80;99.90;;;;;;5059575;28;38360;-78
2022/06/16 07:09:13;;;;;;;4.32;1.27;;;21.90;99.90;;;;;;5059534;28;38964;-78
2022/06/16 07:11:41;;;;;;;1.98;1.35;;;21.90;99.90;;;;;;5058050;28;40312;-76
2022/06/16 07:14:08;;;;;;;3.72;1.52;;;22.10;99.90;;;;;;5057044;28;44053;-77
2022/06/16 07:16:35;;;;;;;3.30;1.65;;;21.90;99.90;;;;;;5062004;28;37849;-78
2022/06/16 07:19:02;;;;;;;4.95;1.58;;;21.80;99.90;;;;;;5060552;28;39197;-77
2022/06/16 07:21:29;;;;;;;4.63;1.50;;;22.10;99.90;;;;;;5065433;28;38891;-78
2022/06/16 07:23:55;;;;;;;3.38;1.42;;;22.40;99.90;;;;;;5103105;28;36852;-78
2022/06/16 07:26:23;;;;;;;6.40;1.45;;;22.70;99.90;;;;;;5065028;28;37582;-78
2022/06/16 07:28:49;;;;;;;3.70;1.33;;;22.40;99.90;;;;;;5062765;28;38591;-78
2022/06/16 07:31:16;;;;;;;2.90;1.42;;;22.20;99.90;;;;;;5076149;28;38878;-78
2022/06/16 07:33:42;;;;;;;3.38;1.58;;;22.20;99.90;;;;;;5082823;28;38930;-77
2022/06/16 07:36:10;;;;;;;2.65;1.30;;;22.10;99.90;;;;;;5080369;27;37016;-78
2022/06/16 07:38:38;;;;;;;2.78;1.38;;;22.30;99.90;;;;;;5081194;27;40819;-79
2022/06/16 07:43:49;;;;;;;2.45;1.48;;;22.50;99.90;;;;;;5071969;27;39263;-78
2022/06/16 07:46:15;;;;;;;3.08;1.30;;;22.60;99.90;;;;;;5055297;28;38194;-78
2022/06/16 07:48:41;;;;;;;4.13;1.70;;;22.40;99.90;;;;;;5058232;28;38536;-77
2022/06/16 07:51:07;;;;;;;2.85;1.45;;;22.00;99.90;;;;;;5096058;27;38883;-79
2022/06/16 07:53:33;;;;;;;3.00;1.35;;;22.40;99.90;;;;;;5055149;28;38769;-78
2022/06/16 07:56:00;;;;;;;2.75;1.52;;;22.60;99.90;;;;;;5058170;28;38344;-78
2022/06/16 07:58:31;;;;;;;4.05;1.40;;;23.00;99.90;;;;;;5068972;27;46676;-80
2022/06/16 08:00:59;;;;;;;3.05;1.40;;;23.20;99.90;;;;;;5074560;27;39718;-79
2022/06/16 08:03:29;;;;;;;5.00;1.30;;;23.20;99.90;;;;;;5078798;28;40376;-79
2022/06/16 08:05:58;;;;;;;4.47;1.40;;;23.00;99.90;;;;;;5080648;27;38793;-78
2022/06/16 08:08:25;;;;;;;3.78;1.42;;;22.90;99.90;;;;;;5062770;27;40769;-79
2022/06/16 08:10:52;;;;;;;4.05;1.73;;;23.30;99.90;;;;;;5070500;28;37286;-79
2022/06/16 08:13:20;;;;;;;9.32;2.47;;;23.40;99.90;;;;;;5080727;27;37254;-77
2022/06/16 08:15:48;;;;;;;3.67;1.48;;;23.30;99.90;;;;;;5078041;28;36331;-77
2022/06/16 08:18:17;;;;;;;3.35;1.63;;;23.30;99.90;;;;;;5074262;27;37813;-77
2022/06/16 08:20:47;;;;;;;17.67;5.20;;;23.30;99.90;;;;;;5082737;27;39020;-78
2022/06/16 08:23:13;;;;;;;5.60;1.73;;;23.60;99.90;;;;;;5081387;27;38787;-77
2022/06/16 08:25:42;;;;;;;3.03;1.70;;;23.50;99.90;;;;;;5083785;27;37679;-78
2022/06/16 08:28:11;;;;;;;4.18;1.42;;;23.50;99.90;;;;;;5061239;28;37616;-75
2022/06/16 08:30:41;;;;;;;3.25;1.60;;;23.70;99.90;;;;;;5079157;28;39213;-77
2022/06/16 08:33:15;;;;;;;3.17;1.30;;;23.60;99.90;;;;;;5108175;27;38017;-79
2022/06/16 08:35:44;;;;;;;4.93;1.80;;;23.90;99.90;;;;;;5071712;28;37019;-78
2022/06/16 08:38:10;;;;;;;2.92;1.63;;;24.00;99.90;;;;;;5057710;28;38060;-77
2022/06/16 08:40:44;;;;;;;1.92;1.23;;;23.70;99.90;;;;;;5068656;27;39654;-78
2022/06/16 08:43:22;;;;;;;3.15;1.60;;;23.60;99.90;;;;;;5062948;28;39969;-78
2022/06/16 08:45:58;;;;;;;10.27;2.03;;;24.10;99.90;;;;;;5066464;27;37171;-80
2022/06/16 08:48:58;;;;;;;4.00;1.67;;;23.10;99.90;;;;;;5059159;27;37782;-81
2022/06/16 08:51:45;;;;;;;3.47;2.03;;;22.60;99.90;;;;;;5080995;27;39050;-79
2022/06/16 08:54:24;;;;;;;3.38;1.98;;;22.40;99.90;;;;;;5075134;27;38881;-80
2022/06/16 08:57:00;;;;;;;4.25;1.67;;;22.90;99.90;;;;;;5083268;27;36739;-80
2022/06/16 09:00:10;;;;;;;4.32;1.50;;;23.30;99.90;;;;;;5084067;27;38561;-79
2022/06/16 09:03:05;;;;;;;3.67;1.30;;;23.80;99.90;;;;;;5077940;28;46906;-80
2022/06/16 09:05:48;;;;;;;3.42;1.83;;;24.00;99.90;;;;;;5078996;27;48657;-79
2022/06/16 09:08:45;;;;;;;2.58;1.40;;;23.20;99.90;;;;;;5097453;27;35988;-80
2022/06/16 09:11:21;;;;;;;3.47;1.88;;;23.10;99.90;;;;;;5080113;27;39774;-80
2022/06/16 09:14:00;;;;;;;3.00;1.52;;;23.40;99.90;;;;;;5066800;27;38687;-79
2022/06/16 09:16:50;;;;;;;4.03;1.98;;;22.80;99.90;;;;;;5092344;27;47198;-80
2022/06/16 09:19:28;;;;;;;2.42;1.50;;;23.30;99.90;;;;;;5084152;27;36307;-80
2022/06/16 09:22:21;;;;;;;2.55;1.27;;;23.40;99.90;;;;;;5079530;27;39271;-80
2022/06/16 09:25:23;;;;;;;7.30;1.92;;;23.70;99.90;;;;;;5111807;27;47126;-80
2022/06/16 09:28:09;;;;;;;3.83;1.70;;;24.20;99.90;;;;;;5085594;28;47126;-81
2022/06/16 09:30:39;;;;;;;4.10;1.70;;;24.20;99.90;;;;;;5079617;27;48848;-81
2022/06/16 09:33:15;;;;;;;4.45;1.40;;;24.30;99.90;;;;;;5086115;27;39481;-80
2022/06/16 09:35:47;;;;;;;4.22;1.77;;;24.50;99.90;;;;;;5085223;28;37785;-78
2022/06/16 09:38:41;;;;;;;6.13;2.03;;;25.10;99.90;;;;;;5080945;27;37984;-78
2022/06/16 09:42:32;;;;;;;3.03;1.58;;;25.00;99.90;;;;;;5074738;27;38008;-79
2022/06/16 09:44:03;;;;;;;3.38;1.80;;;24.50;99.90;;;;;;5066513;28;38438;-79
2022/06/16 09:46:35;;;;;;;5.85;1.90;;;25.20;99.90;;;;;;5077454;28;48595;-78
2022/06/16 09:49:11;;;;;;;4.00;1.63;;;25.90;99.90;;;;;;5085258;28;37170;-79
2022/06/16 09:51:53;;;;;;;4.10;1.70;;;26.40;99.90;;;;;;5075340;28;47367;-79
2022/06/16 09:54:25;;;;;;;3.13;1.80;;;25.70;99.90;;;;;;5091484;27;38658;-78
2022/06/16 09:57:04;;;;;;;4.32;2.08;;;25.20;99.90;;;;;;5091473;27;38637;-78
2022/06/16 10:00:15;;;;;;;2.95;2.08;;;25.00;99.90;;;;;;5074564;28;47762;-79
2022/06/16 10:02:49;;;;;;;6.80;2.03;;;25.40;99.90;;;;;;5063489;28;48742;-78
2022/06/16 10:05:25;;;;;;;4.68;2.10;;;25.30;99.90;;;;;;5070037;28;38304;-79
2022/06/16 10:08:14;;;;;;;6.07;2.28;;;24.40;99.90;;;;;;5061918;27;38811;-80
2022/06/16 10:10:48;;;;;;;3.72;1.65;;;25.00;99.90;;;;;;5080387;28;47698;-77
2022/06/16 10:13:33;;;;;;;2.58;1.77;;;25.50;99.90;;;;;;5082992;27;37924;-77
2022/06/16 10:16:18;;;;;;;3.75;1.80;;;25.50;99.90;;;;;;5086252;27;39334;-78
2022/06/16 10:18:46;;;;;;;4.28;2.05;;;25.80;99.90;;;;;;5077381;27;48694;-78
2022/06/16 10:21:15;;;;;;;4.50;2.17;;;25.60;99.90;;;;;;5064091;28;38581;-78
2022/06/16 10:24:01;;;;;;;6.13;1.92;;;25.90;99.90;;;;;;5059207;28;37053;-79
2022/06/16 10:26:27;;;;;;;5.80;1.90;;;25.20;99.90;;;;;;5079722;27;48946;-79
2022/06/16 10:29:11;;;;;;;3.63;1.63;;;24.80;99.90;;;;;;5081926;27;38281;-78
2022/06/16 10:31:43;;;;;;;3.65;1.70;;;24.50;99.90;;;;;;5087565;27;47235;-80
2022/06/16 10:34:37;;;;;;;5.53;2.42;;;24.90;99.90;;;;;;5067596;27;37865;-78
2022/06/16 10:37:26;;;;;;;2.58;1.95;;;24.40;99.90;;;;;;5061415;27;39519;-79
2022/06/16 10:39:58;;;;;;;4.13;2.30;;;25.00;99.90;;;;;;5069457;28;38919;-79
2022/06/16 10:42:31;;;;;;;3.50;1.95;;;25.00;99.90;;;;;;5056686;27;39434;-78
2022/06/16 10:45:13;;;;;;;4.57;1.95;;;25.50;99.90;;;;;;5058698;28;38788;-78
2022/06/16 10:47:51;;;;;;;5.90;2.10;;;25.60;99.90;;;;;;5069956;27;46860;-79
2022/06/16 10:50:28;;;;;;;3.72;2.22;;;25.50;99.90;;;;;;5061207;27;38522;-77
2022/06/16 10:53:03;;;;;;;4.68;2.03;;;25.60;99.90;;;;;;5062397;28;39260;-78
2022/06/16 10:55:43;;;;;;;5.20;2.60;;;26.10;99.90;;;;;;5059203;28;47002;-77
2022/06/16 10:58:31;;;;;;;4.50;1.98;;;26.50;99.90;;;;;;5067265;27;39626;-78
2022/06/16 11:01:18;;;;;;;6.32;2.33;;;25.80;99.90;;;;;;5081193;27;39695;-77
2022/06/16 11:03:51;;;;;;;4.47;2.15;;;25.70;99.90;;;;;;5086734;27;48423;-78
2022/06/16 11:06:23;;;;;;;4.78;2.03;;;25.90;99.90;;;;;;5067088;27;37363;-77
2022/06/16 11:08:58;;;;;;;4.13;2.13;;;26.70;99.90;;;;;;5066543;27;39424;-77
2022/06/16 11:11:52;;;;;;;2.67;1.75;;;26.50;99.90;;;;;;5062171;27;41337;-77
2022/06/16 11:14:40;;;;;;;4.70;2.28;;;26.50;99.90;;;;;;5064181;28;38089;-77
2022/06/16 11:17:18;;;;;;;8.80;2.45;;;27.40;99.90;;;;;;5062285;27;38005;-79
2022/06/16 11:19:50;;;;;;;5.18;2.60;;;27.90;99.90;;;;;;5063625;27;38393;-79
2022/06/16 11:22:28;;;;;;;3.17;2.60;;;28.30;99.90;;;;;;5061678;27;38674;-78
2022/06/16 11:25:30;;;;;;;3.28;2.13;;;28.30;99.90;;;;;;5062166;28;40051;-79
2022/06/16 11:28:14;;;;;;;4.18;1.90;;;28.00;99.90;;;;;;5055772;28;47644;-78
2022/06/16 11:30:45;;;;;;;4.55;1.98;;;27.80;99.90;;;;;;5054541;28;47725;-78
2022/06/16 11:36:26;;;;;;;6.03;2.13;;;28.10;99.90;;;;;;5055561;27;38894;-77
2022/06/16 11:39:10;;;;;;;3.45;2.33;;;28.40;99.90;;;;;;5059784;28;36676;-77
2022/06/16 11:41:39;;;;;;;5.95;2.45;;;28.40;99.90;;;;;;5060098;28;47128;-78
2022/06/16 11:44:14;;;;;;;3.75;1.67;;;28.40;99.90;;;;;;5061441;27;38285;-78
2022/06/16 11:46:58;;;;;;;3.17;1.92;;;28.70;99.90;;;;;;5058834;28;38500;-77
2022/06/16 11:49:49;;;;;;;5.13;2.10;;;28.60;99.90;;;;;;5060762;27;37215;-78
2022/06/16 11:52:15;;;;;;;7.22;3.70;;;28.60;99.90;;;;;;5060353;27;37592;-79
2022/06/16 11:54:52;;;;;;;2.83;2.05;;;28.60;99.90;;;;;;5060705;28;38348;-77
2022/06/16 11:57:56;;;;;;;3.25;2.40;;;28.40;99.90;;;;;;5056881;27;39189;-79
2022/06/16 12:00:55;;;;;;;5.53;2.70;;;28.40;99.90;;;;;;5054024;27;36029;-78
2022/06/16 12:04:06;;;;;;;5.90;2.38;;;28.50;99.90;;;;;;5074860;27;38189;-77
2022/06/16 12:07:11;;;;;;;6.97;2.15;;;27.90;99.90;;;;;;5062448;27;48651;-77
2022/06/16 12:09:51;;;;;;;3.58;1.85;;;27.90;99.90;;;;;;5045441;28;49007;-79
2022/06/16 12:12:20;;;;;;;2.97;1.80;;;28.60;99.90;;;;;;5062520;27;38848;-80
2022/06/16 12:15:07;;;;;;;3.58;2.20;;;28.70;99.90;;;;;;5062240;27;38817;-78
2022/06/16 12:17:40;;;;;;;4.15;1.90;;;28.80;99.90;;;;;;5077155;28;48837;-80
2022/06/16 12:20:14;;;;;;;6.47;2.15;;;28.70;99.90;;;;;;5095472;27;38710;-78
2022/06/16 12:22:47;;;;;;;5.45;2.50;;;28.90;99.90;;;;;;5070464;27;36149;-75
2022/06/16 12:25:32;;;;;;;4.40;1.85;;;29.20;99.90;;;;;;5066171;27;37838;-77
2022/06/16 12:28:31;;;;;;;3.72;1.67;;;28.70;99.90;;;;;;5057722;27;39543;-80
2022/06/16 12:31:11;;;;;;;5.75;2.13;;;29.00;99.90;;;;;;5075617;28;48404;-78
2022/06/16 12:34:11;;;;;;;4.40;1.85;;;29.20;99.90;;;;;;5077925;28;47329;-77
2022/06/16 12:36:44;;;;;;;3.33;1.48;;;29.40;99.90;;;;;;5080097;27;47139;-78
2022/06/16 12:39:24;;;;;;;4.93;2.55;;;29.60;99.90;;;;;;5080444;27;38523;-78
2022/06/16 12:41:54;;;;;;;3.90;1.77;;;28.50;99.90;;;;;;5062293;27;37801;-78
2022/06/16 12:44:42;;;;;;;6.05;2.25;;;27.90;99.90;;;;;;5063435;27;37450;-78
2022/06/16 12:47:13;;;;;;;9.23;2.53;;;27.10;99.90;;;;;;5064534;28;39623;-77
2022/06/16 12:49:46;;;;;;;3.40;2.20;;;27.20;99.90;;;;;;5059155;28;39294;-78
2022/06/16 12:52:42;;;;;;;4.03;2.22;;;27.50;99.90;;;;;;5076745;27;39768;-78
2022/06/16 12:55:19;;;;;;;4.97;2.30;;;28.00;99.90;;;;;;5074933;27;36960;-78
2022/06/16 12:58:12;;;;;;;6.90;2.90;;;27.90;99.90;;;;;;5078866;27;37756;-77
2022/06/16 13:00:43;;;;;;;2.97;1.83;;;28.10;99.90;;;;;;5080229;27;47239;-78
2022/06/16 13:03:31;;;;;;;7.22;2.13;;;27.60;99.90;;;;;;5101994;27;38845;-77
2022/06/16 13:05:58;;;;;;;6.05;1.98;;;27.60;99.90;;;;;;5078069;28;37903;-78
2022/06/16 13:08:29;;;;;;;3.53;2.05;;;27.30;99.90;;;;;;5097820;27;39582;-79
2022/06/16 13:11:09;;;;;;;6.18;1.83;;;27.50;99.90;;;;;;5079489;28;40168;-77
2022/06/16 13:14:06;;;;;;;6.22;2.42;;;27.30;99.90;;;;;;5075670;27;47159;-79
2022/06/16 13:16:38;;;;;;;3.53;1.92;;;27.50;99.90;;;;;;5078265;28;48445;-78
2022/06/16 13:19:18;;;;;;;4.32;2.10;;;27.50;99.90;;;;;;5072141;27;38717;-77
2022/06/16 13:21:57;;;;;;;4.05;2.20;;;27.90;99.90;;;;;;5078942;28;40055;-78
2022/06/16 13:24:39;;;;;;;3.38;2.03;;;27.70;99.90;;;;;;5081726;27;38344;-78
2022/06/16 13:27:31;;;;;;;5.10;2.50;;;27.50;99.90;;;;;;5081754;27;37631;-78
2022/06/16 13:30:34;;;;;;;6.97;2.10;;;27.20;99.90;;;;;;5071734;27;38823;-77
2022/06/16 13:33:11;;;;;;;6.45;2.25;;;27.10;99.90;;;;;;5073515;28;47534;-78
2022/06/16 13:35:40;;;;;;;3.25;2.13;;;27.10;99.90;;;;;;5085477;27;48672;-77
2022/06/16 13:38:06;;;;;;;3.90;2.22;;;27.60;99.90;;;;;;5075810;27;38023;-77
2022/06/16 13:40:35;;;;;;;4.88;2.55;;;27.30;99.90;;;;;;5119380;27;37967;-78
2022/06/16 13:43:12;;;;;;;5.03;2.25;;;27.10;99.90;;;;;;5070514;28;38977;-77
2022/06/16 13:45:49;;;;;;;4.32;2.47;;;26.70;99.90;;;;;;5083637;27;48921;-77